createdAt,value
2023-03-16T00:00:21.757Z,54.04
2023-03-16T00:03:10.961Z,55.03
2023-03-16T00:05:38.875Z,55.92
2023-03-16T00:08:06.666Z,56.77
2023-03-16T00:10:34.738Z,57.68
2023-03-16T00:13:02.934Z,58.18
2023-03-16T00:15:30.708Z,59.02
2023-03-16T00:17:58.451Z,59.15
2023-03-16T00:20:27.880Z,59.73
2023-03-16T00:22:55.820Z,60.14
2023-03-16T00:25:24.375Z,60.45
2023-03-16T00:27:52.422Z,60.78
2023-03-16T00:30:20.170Z,61.05
2023-03-16T00:32:47.922Z,61.40
2023-03-16T00:35:18.317Z,61.63
2023-03-16T00:37:46.182Z,61.97
2023-03-16T00:40:15.288Z,62.18
2023-03-16T00:42:44.327Z,64.88
2023-03-16T00:45:12.294Z,69.27
2023-03-16T00:47:40.024Z,63.16
2023-03-16T00:50:08.352Z,55.76
2023-03-16T00:52:36.098Z,52.89
2023-03-16T00:55:04.809Z,53.55
2023-03-16T00:57:32.792Z,54.53
2023-03-16T01:00:02.284Z,55.83
2023-03-16T01:02:30.037Z,57.96
2023-03-16T01:04:58.469Z,58.32
2023-03-16T01:07:26.954Z,58.86
2023-03-16T01:09:54.745Z,59.42
2023-03-16T01:12:22.757Z,59.95
2023-03-16T01:14:50.518Z,60.54
2023-03-16T01:17:18.445Z,61.54
2023-03-16T01:19:46.488Z,64.57
2023-03-16T01:22:15.172Z,65.99
2023-03-16T01:24:47.014Z,63.55
2023-03-16T01:27:15.145Z,61.04
2023-03-16T01:29:43.830Z,54.81
2023-03-16T01:32:12.937Z,52.69
2023-03-16T01:34:41.569Z,53.36
2023-03-16T01:37:09.825Z,54.30
2023-03-16T01:39:43.782Z,55.39
2023-03-16T01:42:13.872Z,56.62
2023-03-16T01:45:05.922Z,57.11
2023-03-16T01:47:39.544Z,57.94
2023-03-16T01:50:13.980Z,58.98
2023-03-16T01:52:43.117Z,59.51
2023-03-16T01:55:13.475Z,60.08
2023-03-16T01:57:44.080Z,60.68
2023-03-16T02:00:22.085Z,61.32
2023-03-16T02:03:06.249Z,61.34
2023-03-16T02:06:01.537Z,61.82
2023-03-16T02:08:31.628Z,65.11
2023-03-16T02:11:00.123Z,68.35
2023-03-16T02:13:38.535Z,64.62
2023-03-16T02:16:07.825Z,58.36
2023-03-16T02:18:36.316Z,55.26
2023-03-16T02:21:04.326Z,55.03
2023-03-16T02:23:33.164Z,56.06
2023-03-16T02:26:22.986Z,58.08
2023-03-16T02:29:01.297Z,58.79
2023-03-16T02:31:30.599Z,59.00
2023-03-16T02:33:59.262Z,59.60
2023-03-16T02:36:27.847Z,60.37
2023-03-16T02:38:55.669Z,60.72
2023-03-16T02:41:23.905Z,61.18
2023-03-16T02:44:10.890Z,61.69
2023-03-16T02:46:43.475Z,66.10
2023-03-16T02:49:20.744Z,68.30
2023-03-16T02:51:48.586Z,64.40
2023-03-16T02:54:19.073Z,57.84
2023-03-16T02:56:46.924Z,54.07
2023-03-16T02:59:15.109Z,54.58
2023-03-16T03:01:42.937Z,55.16
2023-03-16T03:04:11.568Z,56.65
2023-03-16T03:06:39.783Z,57.96
2023-03-16T03:09:11.604Z,59.12
2023-03-16T03:11:41.384Z,59.76
2023-03-16T03:14:09.193Z,60.18
2023-03-16T03:16:37.906Z,61.40
2023-03-16T03:19:05.846Z,62.38
2023-03-16T03:21:36.801Z,67.07
2023-03-16T03:24:06.097Z,66.78
2023-03-16T03:26:35.306Z,62.57
2023-03-16T03:29:04.444Z,55.66
2023-03-16T03:31:34.138Z,52.84
2023-03-16T03:34:06.772Z,53.59
2023-03-16T03:36:36.248Z,54.38
2023-03-16T03:39:05.273Z,56.38
2023-03-16T03:41:33.945Z,56.62
2023-03-16T03:44:04.439Z,58.11
2023-03-16T03:46:32.684Z,58.41
2023-03-16T03:49:03.837Z,59.04
2023-03-16T03:51:33.868Z,59.72
2023-03-16T03:54:11.897Z,60.54
2023-03-16T03:56:56.067Z,61.48
2023-03-16T03:59:24.129Z,64.99
2023-03-16T04:02:05.541Z,66.64
2023-03-16T04:04:41.691Z,64.07
2023-03-16T04:07:11.354Z,60.88
2023-03-16T04:09:41.934Z,53.96
2023-03-16T04:12:12.272Z,52.42
2023-03-16T04:14:40.071Z,53.55
2023-03-16T04:17:09.334Z,54.44
2023-03-16T04:19:39.924Z,55.59
2023-03-16T04:22:13.012Z,56.29
2023-03-16T04:24:43.222Z,57.20
2023-03-16T04:27:12.512Z,58.06
2023-03-16T04:29:40.951Z,58.67
2023-03-16T04:32:09.844Z,59.20
2023-03-16T04:34:42.125Z,59.58
2023-03-16T04:37:10.498Z,60.04
2023-03-16T04:39:44.088Z,60.67
2023-03-16T04:42:12.562Z,61.21
2023-03-16T04:44:44.471Z,61.69
2023-03-16T04:47:15.632Z,64.76
2023-03-16T04:49:44.923Z,68.23
2023-03-16T04:52:13.627Z,62.49
2023-03-16T04:54:41.814Z,55.55
2023-03-16T04:57:10.685Z,52.96
2023-03-16T04:59:45.434Z,53.79
2023-03-16T05:02:20.973Z,54.58
2023-03-16T05:04:49.553Z,55.26
2023-03-16T05:07:18.273Z,56.05
2023-03-16T05:09:50.007Z,56.60
2023-03-16T05:12:18.305Z,56.96
2023-03-16T05:14:46.286Z,57.08
2023-03-16T05:17:22.241Z,57.50
2023-03-16T05:19:50.690Z,58.23
2023-03-16T05:22:19.265Z,58.49
2023-03-16T05:25:05.695Z,59.14
2023-03-16T05:27:35.197Z,59.55
2023-03-16T05:30:03.995Z,60.12
2023-03-16T05:32:32.689Z,60.49
2023-03-16T05:35:00.568Z,61.03
2023-03-16T05:37:29.023Z,61.39
2023-03-16T05:39:58.641Z,64.75
2023-03-16T05:42:29.568Z,68.91
2023-03-16T05:45:01.691Z,63.31
2023-03-16T05:47:37.893Z,55.25
2023-03-16T05:50:11.211Z,52.21
2023-03-16T05:52:40.574Z,52.71
2023-03-16T05:55:16.230Z,53.64
2023-03-16T05:57:45.378Z,54.74
2023-03-16T06:00:15.914Z,55.63
2023-03-16T06:02:49.411Z,56.29
2023-03-16T06:05:19.746Z,57.15
2023-03-16T06:07:50.194Z,57.80
2023-03-16T06:10:19.237Z,59.00
2023-03-16T06:12:47.289Z,59.89
2023-03-16T06:15:15.158Z,60.51
2023-03-16T06:17:43.180Z,60.57
2023-03-16T06:20:13.450Z,61.22
2023-03-16T06:22:42.900Z,61.47
2023-03-16T06:25:12.757Z,65.33
2023-03-16T06:27:42.616Z,67.55
2023-03-16T06:30:14.174Z,63.45
2023-03-16T06:32:42.538Z,55.70
2023-03-16T06:35:10.435Z,52.87
2023-03-16T06:37:41.557Z,53.05
2023-03-16T06:40:32.144Z,54.38
2023-03-16T06:43:00.588Z,55.97
2023-03-16T06:45:28.554Z,57.36
2023-03-16T06:47:56.905Z,59.02
2023-03-16T06:50:24.708Z,59.12
2023-03-16T06:52:52.738Z,59.62
2023-03-16T06:55:21.011Z,61.12
2023-03-16T06:57:50.046Z,61.34
2023-03-16T07:00:20.496Z,62.68
2023-03-16T07:02:48.448Z,65.51
2023-03-16T07:05:34.132Z,57.56
2023-03-16T07:08:19.772Z,54.48
2023-03-16T07:10:51.097Z,55.57
2023-03-16T07:13:21.244Z,57.83
2023-03-16T07:15:52.182Z,58.35
2023-03-16T07:18:26.134Z,60.11
2023-03-16T07:20:55.504Z,60.34
2023-03-16T07:23:25.801Z,61.59
2023-03-16T07:25:56.390Z,61.41
2023-03-16T07:28:25.623Z,61.37
2023-03-16T07:31:03.321Z,62.53
2023-03-16T07:33:36.309Z,60.27
2023-03-16T07:36:10.694Z,56.95
2023-03-16T07:38:42.690Z,56.73
2023-03-16T07:41:14.001Z,57.48
2023-03-16T07:43:46.979Z,58.49
2023-03-16T07:46:15.898Z,59.45
2023-03-16T07:48:45.428Z,60.48
2023-03-16T07:51:14.320Z,60.82
2023-03-16T07:53:43.879Z,60.33
2023-03-16T07:56:21.587Z,60.61
2023-03-16T07:58:56.230Z,60.84
2023-03-16T08:01:24.662Z,60.85
2023-03-16T08:03:53.993Z,60.97
2023-03-16T08:06:25.965Z,60.83
2023-03-16T08:08:55.226Z,60.60
2023-03-16T08:11:31.014Z,60.55
2023-03-16T08:14:04.280Z,61.06
2023-03-16T08:16:51.707Z,60.67
2023-03-16T08:19:20.542Z,60.26
2023-03-16T08:22:01.438Z,60.10
2023-03-16T08:24:37.532Z,59.92
2023-03-16T08:27:09.391Z,59.29
2023-03-16T08:29:40.761Z,59.48
2023-03-16T08:32:13.180Z,59.48
2023-03-16T08:34:45.921Z,58.51
2023-03-16T08:37:14.770Z,58.65
2023-03-16T08:39:46.733Z,58.74
2023-03-16T08:42:22.361Z,58.58
2023-03-16T08:44:56.045Z,57.95
2023-03-16T08:47:25.889Z,57.69
2023-03-16T08:49:57.398Z,55.53
2023-03-16T08:52:28.012Z,54.99
2023-03-16T08:55:03.367Z,54.82
2023-03-16T08:57:33.747Z,55.24
2023-03-16T14:02:43.925Z,23.06
2023-03-16T14:05:22.087Z,22.93
2023-03-16T14:07:51.430Z,23.47
2023-03-16T14:10:21.078Z,23.09
2023-03-16T14:12:53.569Z,21.43
2023-03-16T14:15:23.894Z,21.41
2023-03-16T14:17:52.444Z,21.00
2023-03-16T14:20:23.301Z,20.96
2023-03-16T14:22:52.788Z,19.58
2023-03-16T14:25:23.699Z,19.41
2023-03-16T14:28:06.233Z,19.06
2023-03-16T14:34:54.619Z,17.95
2023-03-16T14:37:23.037Z,17.43
2023-03-16T14:40:26.269Z,16.59
2023-03-16T14:42:56.190Z,16.39
2023-03-16T14:45:35.937Z,16.51
2023-03-16T14:48:07.420Z,15.52
2023-03-16T14:54:55.310Z,14.76
2023-03-16T14:57:23.293Z,14.27
2023-03-16T14:59:52.488Z,14.88
2023-03-16T15:02:27.168Z,13.49
2023-03-16T15:04:56.723Z,13.15
2023-03-16T15:07:26.834Z,13.01
2023-03-16T15:09:57.481Z,12.39
2023-03-16T15:12:26.210Z,12.44
2023-03-16T15:15:12.676Z,11.94
2023-03-16T15:17:40.850Z,11.87
2023-03-16T15:20:12.308Z,11.03
2023-03-16T15:22:40.644Z,10.50
2023-03-16T15:25:11.769Z,10.57
2023-03-16T15:27:39.638Z,10.49
2023-03-16T15:30:16.386Z,10.57
2023-03-16T15:32:44.550Z,10.33
2023-03-16T15:35:12.683Z,10.56
2023-03-16T15:37:40.804Z,10.02
2023-03-16T15:40:16.094Z,9.59
2023-03-16T15:42:46.789Z,9.37
2023-03-16T15:45:20.824Z,9.37
2023-03-16T15:47:50.219Z,9.37
2023-03-16T15:50:21.987Z,9.04
2023-03-16T15:52:53.569Z,9.39
2023-03-16T15:55:24.266Z,8.60
2023-03-16T15:57:58.756Z,8.63
2023-03-16T16:00:28.776Z,8.39
2023-03-16T16:02:57.856Z,8.46
2023-03-16T16:05:25.968Z,8.52
2023-03-16T16:07:54.879Z,8.97
2023-03-16T16:37:37.710Z,10.82
2023-03-16T16:40:37.260Z,11.21
2023-03-16T16:44:47.764Z,12.79
2023-03-16T19:09:16.928Z,50.25
2023-03-16T19:19:29.644Z,47.88
2023-03-16T19:49:21.796Z,48.52
2023-03-16T20:02:40.400Z,52.46
2023-03-16T20:05:16.727Z,51.76
2023-03-16T20:07:44.601Z,51.47
2023-03-16T20:10:22.300Z,51.52
2023-03-16T20:12:53.551Z,51.40
2023-03-16T20:15:22.588Z,51.47
2023-03-16T20:17:50.607Z,51.84
2023-03-16T20:20:29.794Z,51.54
2023-03-16T20:22:59.678Z,51.61
2023-03-16T20:25:32.374Z,51.47
2023-03-16T20:28:02.147Z,51.50
2023-03-16T20:30:30.834Z,51.62
2023-03-16T20:32:58.782Z,52.02
2023-03-16T20:35:31.223Z,51.98
2023-03-16T20:37:59.271Z,51.72
2023-03-16T20:40:27.060Z,52.05
2023-03-16T20:42:55.019Z,52.13
2023-03-16T20:45:27.177Z,52.25
2023-03-16T20:47:55.034Z,52.41
2023-03-16T20:50:29.282Z,52.35
2023-03-16T20:52:57.497Z,52.62
2023-03-16T20:55:27.238Z,53.00
2023-03-16T20:57:56.464Z,53.16
2023-03-16T21:00:34.695Z,53.04
2023-03-16T21:03:05.166Z,53.10
2023-03-16T21:05:33.831Z,53.20
2023-03-16T21:08:01.612Z,53.31
2023-03-16T21:10:30.900Z,53.35
2023-03-16T21:12:59.042Z,52.88
2023-03-16T21:15:30.342Z,52.32
2023-03-16T21:18:00.809Z,52.70
2023-03-16T21:20:32.118Z,52.69
2023-03-16T21:23:00.807Z,52.01
2023-03-16T21:25:30.960Z,52.16
2023-03-16T21:28:02.284Z,51.89
2023-03-16T21:30:32.069Z,51.81
2023-03-16T21:33:01.919Z,51.74
2023-03-16T21:35:35.902Z,51.54
2023-03-16T21:38:18.259Z,51.29
2023-03-16T21:40:47.128Z,51.24
2023-03-16T21:43:15.706Z,51.02
2023-03-16T21:45:44.320Z,50.98
2023-03-16T21:48:20.212Z,51.02
2023-03-16T21:50:48.544Z,51.25
2023-03-16T21:53:34.314Z,51.10
2023-03-16T21:56:02.041Z,51.08
2023-03-16T21:58:29.775Z,51.28
2023-03-16T22:00:58.504Z,51.22
2023-03-16T22:03:47.950Z,51.19
2023-03-16T22:06:18.169Z,51.21
2023-03-16T22:08:46.496Z,51.08
2023-03-16T22:11:17.325Z,51.59
2023-03-16T22:13:46.499Z,51.57
2023-03-16T22:16:17.151Z,51.72
2023-03-16T22:18:47.032Z,51.74
2023-03-16T22:21:25.612Z,52.00
2023-03-16T22:23:54.339Z,51.85
2023-03-16T22:26:23.489Z,52.00
2023-03-16T22:28:52.398Z,51.69
2023-03-16T22:31:27.694Z,51.88
2023-03-16T22:33:55.678Z,51.95
2023-03-16T22:36:23.663Z,51.63
2023-03-16T22:39:00.244Z,51.79
2023-03-16T22:41:29.720Z,51.83
2023-03-16T22:43:58.284Z,51.67
2023-03-16T22:46:27.693Z,51.95
2023-03-16T22:48:56.568Z,51.85
2023-03-16T22:51:33.466Z,51.73
2023-03-16T22:54:15.464Z,51.73
2023-03-16T22:56:44.745Z,51.54
2023-03-16T22:59:19.110Z,51.75
2023-03-16T23:01:48.744Z,51.83
2023-03-16T23:04:20.042Z,51.85
2023-03-16T23:06:52.887Z,51.99
2023-03-16T23:09:21.940Z,51.86
2023-03-16T23:11:53.912Z,51.77
2023-03-16T23:14:23.273Z,51.63
2023-03-16T23:16:52.673Z,51.24
2023-03-16T23:19:32.401Z,51.56
2023-03-16T23:22:03.531Z,51.79
2023-03-16T23:24:35.125Z,51.59
2023-03-16T23:27:04.562Z,51.83
2023-03-16T23:29:35.417Z,51.93
2023-03-16T23:32:04.451Z,52.28
2023-03-16T23:34:32.202Z,52.24
2023-03-16T23:36:59.937Z,52.19
2023-03-16T23:39:28.800Z,51.95
2023-03-16T23:41:57.465Z,52.00
2023-03-16T23:44:27.634Z,52.21
2023-03-16T23:46:55.550Z,51.95
2023-03-16T23:49:33.551Z,52.10
2023-03-16T23:52:28.244Z,52.02
2023-03-16T23:54:58.385Z,52.15
2023-03-16T23:57:27.899Z,52.23
2023-03-16T23:59:57.073Z,52.37
